This is the latest recevied weather packets stored in our database for station/object N5PRN. If no packets are shown the sender has not sent any weather packets the latest 10 day(s).
| Time | Temp. | Humidity | Pressure | Rain* | Wind** | Luminosity | Snow |
|---|---|---|---|---|---|---|---|
| 1777748444 | 22.78° C | 44% | 1018.9 hPa | 0 mm | - | 809 W/m² | - |
| 1777748139 | 22.78° C | 46% | 1018.8 hPa | 0 mm | - | 798 W/m² | - |
| 1777747837 | 22.22° C | 50% | 1019.1 hPa | 0 mm | - | 812 W/m² | - |
| 1777747532 | 22.22° C | 44% | 1018.9 hPa | 0 mm | - | 832 W/m² | - |
| 1777746621 | 22.22° C | 50% | 1019.2 hPa | 0 mm | - | 815 W/m² | - |
| 1777746315 | 22.22° C | 44% | 1019.2 hPa | 0 mm | - | 817 W/m² | - |
| 1777746012 | 22.22° C | 53% | 1019.1 hPa | 0 mm | - | 822 W/m² | - |
| 1777745710 | 21.67° C | 48% | 1019.3 hPa | 0 mm | - | 837 W/m² | - |
| 1777744496 | 21.67° C | 50% | 1019.5 hPa | 0 mm | - | 807 W/m² | - |
| 1777743890 | 21.67° C | 49% | 1019.7 hPa | 0 mm | - | 787 W/m² | - |
| 1777743283 | 21.67° C | 46% | 1019.8 hPa | 0 mm | - | 815 W/m² | - |
| 1777742678 | 21.67° C | 45% | 1019.6 hPa | 0 mm | - | 835 W/m² | - |
| 1777742374 | 21.67° C | 50% | 1019.9 hPa | 0 mm | - | 842 W/m² | - |
| 1777741768 | 21.11° C | 45% | 1019.8 hPa | 0 mm | - | 838 W/m² | - |
| 1777739942 | 20.56° C | 54% | 1020.2 hPa | 0 mm | - | 837 W/m² | - |
| 1777739336 | 20° C | 55% | 1020 hPa | 0 mm | - | 855 W/m² | - |
| 1777739032 | 19.44° C | 60% | 1019.9 hPa | 0 mm | - | 823 W/m² | - |
| 1777738729 | 18.89° C | 60% | 1020 hPa | 0 mm | - | 801 W/m² | - |
| 1777738124 | 14.44° C | 99% | 1019.9 hPa | 0 mm | - | 842 W/m² | - |
| 1777737821 | 13.89° C | 99% | 1019.9 hPa | 0 mm | - | 857 W/m² | - |
| 1777736305 | 13.33° C | 99% | 1019.7 hPa | 0 mm | - | 952 W/m² | - |
| 1777736002 | 13.33° C | 99% | 1019.6 hPa | 0 mm | - | 945 W/m² | - |
| 1777735699 | 13.89° C | 99% | 1019.5 hPa | 0 mm | - | 924 W/m² | - |
| 1777735397 | 13.89° C | 99% | 1019.4 hPa | 0 mm | - | 848 W/m² | - |
| 1777735094 | 14.44° C | 99% | 1019.6 hPa | 0 mm | - | 795 W/m² | - |
* Rain latest hour (hover to see other rain measurements)
** Current wind speed in m/s (hover to see current wind gust speed)